• Join FlightAware (Why Join?)
  • Login
  • US Flag 
07:38PM EST


 

Airport Tracker/Info


-or-


 

Live Flight TrackerFlight Track Log ✈ AAL1459 ✈ 04-Jul-2013 ✈ KORD - KRNO

Flight Track Log - Related Links

Times and Time Zones

All times are in EDT time to prevent confusion due to time zone crossing. See the AAL1459 flight status page for this flight to view local times or setup timezone preferences in your user account.

Time Position Orientation Groundspeed Altitude Reporting Facility
EDT Latitude Longitude Course Direction KTS MPH feet Rate Location/Type
07:27PM 41.9167 -87.9833 261° West 217 250 3,200  Level Chicago TRACON
07:28PM 41.9334 -88.1994 257° West  Level FlightAware Approximate
07:28PM 41.9000 -88.0667 255° West 260 299 5,300  Level Chicago TRACON
07:29PM 41.9294 -88.3530 255° West  Level FlightAware Approximate
07:29PM 41.9022 -88.1256 273° West 256 295 6,900  Level Chicago Center
07:30PM 41.9123 -88.5045 261° West  Level FlightAware Approximate
07:30PM 41.8989 -88.2256 267° West 270 311 9,600  Level Chicago Center
07:31PM 41.8944 -88.6569 261° West  Level FlightAware Approximate
07:31PM 41.8975 -88.3536 269° West 288 331 12,500  Level Chicago Center
07:32PM 41.8761 -88.8137 261° West  Level FlightAware Approximate
07:32PM 41.8967 -88.4692 269° West 309 356 14,300  Level Chicago Center
07:33PM 41.8942 -88.6069 269° West 366 421 16,200 2,040 Climbing Chicago Center
07:34PM 41.8933 -88.7503 270° West 384 442 18,500 2,100 Climbing Chicago Center
07:35PM 41.8939 -88.8986 270° West 397 457 20,600 2,040 Climbing Chicago Center
07:36PM 41.8925 -89.0528 269° West 415 478 22,700 2,700 Climbing Chicago Center
07:37PM 41.8953 -89.2056 271° West 416 479 26,100 2,640 Climbing Chicago Center
07:38PM 41.9083 -89.3767 276° West 394 453 28,200 1,800 Climbing Chicago Center
07:39PM 41.8878 -89.5142 259° West 382 440 29,800 1,260 Climbing Chicago Center
07:40PM 41.8644 -89.6522 257° West 382 440 30,900 1,020 Climbing Chicago Center
07:41PM 41.8408 -89.7942 257° West 390 449 31,900 1,080 Climbing Chicago Center
07:42PM 41.8175 -89.9386 258° West 400 460 33,100 1,080 Climbing Chicago Center
07:43PM 41.7900 -90.1003 257° West 402 463 34,200 1,020 Climbing Chicago Center
07:44PM 41.7656 -90.2447 257° West 400 460 35,200 840 Climbing Chicago Center
07:45PM 41.7392 -90.3953 257° West 411 473 36,000 360 Climbing Chicago Center
07:46PM 41.7144 -90.5361 257° West 399 459 36,000  Level Chicago Center
07:47PM 41.6867 -90.6878 256° West 394 453 36,000  Level Chicago Center
07:48PM 41.6617 -90.8297 257° West 395 455 36,000  Level Chicago Center
07:49PM 41.6350 -90.9742 256° West 401 461 36,000  Level Chicago Center
07:50PM 41.6094 -91.1208 257° West 407 468 36,000  Level Chicago Center
07:51PM 41.5817 -91.2731 256° West 421 484 36,000  Level Chicago Center
07:52PM 41.5539 -91.4247 256° West 424 488 36,000  Level Chicago Center
07:53PM 41.5197 -91.6092 256° West 430 495 36,000  Level Chicago Center
07:54PM 41.4994 -91.7653 260° West 432 497 36,000  Level Chicago Center
07:55PM 41.4781 -91.9247 260° West 436 502 36,000  Level Chicago Center
07:56PM 41.4569 -92.0856 260° West 442 509 36,000  Level Chicago Center
07:57PM 41.4356 -92.2450 260° West 443 510 36,000  Level Chicago Center
07:58PM 41.4094 -92.4319 260° West 450 518 36,000  Level Chicago Center
07:59PM 41.3872 -92.5958 260° West 455 524 36,000  Level Chicago Center
08:00PM 41.3636 -92.7606 259° West 459 528 36,000  Level Chicago Center
08:01PM 41.3408 -92.9261 260° West 460 529 36,000  Level Chicago Center
08:02PM 41.3164 -93.0917 259° West 461 531 36,000 180 Level Chicago Center
08:03PM 41.2931 -93.2575 259° West 461 531 36,400 660 Climbing Chicago Center
08:05PM 41.2689 -93.4256 259° West 467 537 37,400 780 Climbing Chicago Center
08:06PM 41.2392 -93.6233 259° West 461 531 38,000 240 Climbing Chicago Center
08:07PM 41.2147 -93.7917 259° West 467 537 38,000  Level Chicago Center
08:08PM 41.1889 -93.9572 258° West 465 535 38,000  Level Chicago Center
08:09PM 41.1647 -94.1250 259° West 467 537 38,000  Level Chicago Center
08:10PM 41.1367 -94.2928 258° West 469 540 38,000  Level Chicago Center
08:11PM 41.1108 -94.4606 259° West 470 541 38,000  Level Chicago Center
08:12PM 41.0692 -94.7289 258° West 472 543 38,000  Level Minneapolis Center
08:13PM 41.0422 -94.9014 258° West 474 545 38,000  Level Minneapolis Center
08:14PM 41.0139 -95.0742 258° West 480 552 38,000  Level Minneapolis Center
08:15PM 40.9861 -95.2444 258° West 475 547 38,000  Level Minneapolis Center
08:16PM 40.9583 -95.4142 258° West 473 544 38,000  Level Minneapolis Center
08:17PM 40.9239 -95.6153 257° West 467 537 38,000  Level Minneapolis Center
08:18PM 40.8956 -95.7819 257° West 462 532 38,000  Level Minneapolis Center
08:19PM 40.8675 -95.9494 258° West 463 533 38,000  Level Minneapolis Center
08:20PM 40.8394 -96.1147 257° West 460 529 38,000  Level Minneapolis Center
08:21PM 40.8117 -96.2778 257° West 455 524 38,000  Level Minneapolis Center
08:22PM 40.7828 -96.4428 257° West 457 526 38,000  Level Minneapolis Center
08:23PM 40.7544 -96.6083 257° West 458 527 38,000  Level Minneapolis Center
08:25PM 40.7256 -96.7728 257° West 459 528 38,000  Level Minneapolis Center
08:26PM 40.6903 -96.9703 257° West 460 529 38,000  Level Minneapolis Center
08:27PM 40.6608 -97.1339 257° West 460 529 38,000  Level Minneapolis Center
08:28PM 40.6314 -97.2983 257° West 460 529 38,000  Level Minneapolis Center
08:29PM 40.6000 -97.4619 256° West 460 529 38,000  Level Minneapolis Center
08:30PM 40.5697 -97.6256 256° West 460 529 38,000  Level Minneapolis Center
08:31PM 40.5392 -97.7881 256° West 459 528 38,000  Level Minneapolis Center
08:32PM 40.5081 -97.9533 256° West 462 532 38,000  Level Minneapolis Center
08:33PM 40.5047 -98.1172 269° West 445 512 38,000  Level Minneapolis Center
08:34PM 40.5108 -98.2800 273° West 443 510 38,000  Level Minneapolis Center
08:35PM 40.5172 -98.4414 273° West 443 510 38,000  Level Minneapolis Center
08:36PM 40.5231 -98.6036 273° West 442 509 38,000  Level Minneapolis Center
08:37PM 40.5289 -98.7661 273° West 443 510 38,000  Level Minneapolis Center
08:38PM 40.5356 -98.9300 273° West 445 512 38,000  Level Minneapolis Center
08:39PM 40.5408 -99.0925 272° West 444 511 38,000  Level Minneapolis Center
08:40PM 40.5458 -99.2567 272° West 445 512 38,000  Level Minneapolis Center
08:41PM 40.5522 -99.4208 273° West 447 514 38,000  Level Minneapolis Center
08:42PM 40.5586 -99.6475 272° West 443 510 38,000  Level Minneapolis Center
08:43PM 40.5647 -99.8083 273° West 440 506 38,000  Level Minneapolis Center
08:44PM 40.5683 -99.9689 272° West 439 505 38,000  Level Minneapolis Center
08:45PM 40.5728 -100.1278 272° West 436 502 38,000  Level Minneapolis Center
08:46PM 40.5778 -100.2881 272° West 437 503 38,000  Level Minneapolis Center
08:47PM 40.5811 -100.4483 272° West 438 504 38,000  Level Minneapolis Center
08:48PM 40.5825 -100.6344 271° West 440 506 38,000  Level Denver Center
08:49PM 40.5861 -100.8169 272° West 440 506 38,000  Level Denver Center
08:50PM 40.5883 -100.9725 271° West 440 506 38,000  Level Denver Center
08:51PM 40.5919 -101.1522 272° West 438 504 38,000  Level Denver Center
08:53PM 40.5942 -101.3061 271° West 439 505 38,000  Level Denver Center
08:54PM 40.5961 -101.4619 271° West 442 509 38,000  Level Denver Center
08:55PM 40.5986 -101.6431 271° West 445 512 38,000  Level Denver Center
08:56PM 40.6008 -101.7981 271° West 443 510 38,000  Level Denver Center
08:57PM 40.6025 -101.9514 271° West 439 505 38,000  Level Denver Center
08:58PM 40.6039 -102.1028 271° West 435 501 38,000  Level Denver Center
08:59PM 40.6039 -102.2822 270° West 439 505 38,000  Level Denver Center
09:00PM 40.6053 -102.4608 271° West 438 504 38,000  Level Denver Center
09:01PM 40.6061 -102.6144 270° West 439 505 38,000  Level Denver Center
09:02PM 40.6069 -102.8086 270° West 438 504 38,000  Level Denver Center
09:03PM 40.6078 -103.0003 270° West 439 505 38,000  Level Denver Center
09:04PM 40.6078 -103.1614 270° West 441 507 38,000  Level Denver Center
09:05PM 40.6072 -103.3219 270° West 441 507 38,000  Level Denver Center
09:06PM 40.6061 -103.4811 270° West 438 504 38,000  Level Denver Center
09:07PM 40.6053 -103.6411 270° West 438 504 38,000  Level Denver Center
09:08PM 40.6042 -103.7992 270° West 436 502 38,000  Level Denver Center
09:09PM 40.6033 -103.9586 270° West 438 504 38,000  Level Denver Center
09:10PM 40.6011 -104.1519 269° West 444 511 38,000  Level Denver Center
09:11PM 40.6000 -104.3147 270° West 446 513 38,000  Level Denver Center
09:12PM 40.5978 -104.5083 269° West 446 513 38,000  Level Denver Center
09:13PM 40.5956 -104.6697 269° West 445 512 38,000  Level Denver Center
09:14PM 40.5933 -104.8294 269° West 441 507 38,000  Level Denver Center
09:15PM 40.5903 -104.9875 269° West 436 502 38,000  Level Denver Center
09:16PM 40.5883 -105.1414 269° West 427 491 38,000  Level Denver Center
09:17PM 40.5844 -105.2964 268° West 425 489 38,000  Level Denver Center
09:18PM 40.5806 -105.4539 268° West 433 498 38,000  Level Denver Center
09:20PM 40.5783 -105.6103 269° West 431 496 38,000  Level Denver Center
09:21PM 40.5736 -105.7658 268° West 428 493 38,000  Level Denver Center
09:22PM 40.5700 -105.9519 269° West 426 490 38,000  Level Denver Center
09:23PM 40.5661 -106.1072 268° West 426 490 38,000  Level Denver Center
09:24PM 40.5617 -106.2575 268° West 428 493 38,000  Level Denver Center
09:25PM 40.5586 -106.4078 269° West 429 494 38,000  Level Denver Center
09:26PM 40.5522 -106.5617 267° West 426 490 38,000  Level Denver Center
09:27PM 40.5483 -106.7158 268° West 424 488 38,000  Level Denver Center
09:28PM 40.5419 -106.9019 267° West 425 489 38,000  Level Denver Center
09:29PM 40.5369 -107.0544 268° West 422 486 38,000  Level Denver Center
09:30PM 40.5308 -107.2206 267° West 424 488 38,000  Level Denver Center
09:31PM 40.5242 -107.3944 267° West 426 490 38,000  Level Denver Center
09:32PM 40.5183 -107.5436 267° West 427 491 38,000  Level Denver Center
09:33PM 40.5125 -107.7175 268° West 427 491 38,000  Level Denver Center
09:34PM 40.5053 -107.8653 266° West 426 490 38,000  Level Denver Center
09:35PM 40.5008 -107.9906 267° West 430 495 38,000  Level Denver Center
09:36PM 40.5200 -108.1875 277° West 427 491 38,000  Level Denver Center
09:37PM 40.5361 -108.3317 278° West 421 484 38,000  Level Denver Center
09:38PM 40.5503 -108.4781 277° West 424 488 38,000  Level Denver Center
09:39PM 40.5672 -108.6481 278° West 422 486 38,000  Level Denver Center
09:40PM 40.5814 -108.7958 277° West 426 490 38,000  Level Denver Center
09:41PM 40.5975 -108.9661 277° West 424 488 38,000  Level Denver Center
09:42PM 40.6125 -109.1114 278° West 422 486 38,000  Level Denver Center
09:43PM 40.6058 -109.2594 267° West 426 490 38,000  Level Denver Center
09:44PM 40.5806 -109.4286 259° West 423 487 38,000  Level Denver Center
09:45PM 40.5611 -109.5733 260° West 421 484 38,000  Level Denver Center
09:46PM 40.5650 -109.7192 272° West 421 484 38,000  Level Denver Center
09:48PM 40.5933 -109.9350 280° West 418 481 38,000  Level Salt Lake Center
09:49PM 40.6153 -110.1022 280° West 416 479 38,000  Level Salt Lake Center
09:50PM 40.6364 -110.2547 280° West 413 475 38,000  Level Salt Lake Center
09:51PM 40.6550 -110.3969 280° West 413 475 38,000  Level Salt Lake Center
09:52PM 40.6733 -110.5389 280° West 412 474 38,000  Level Salt Lake Center
09:53PM 40.6944 -110.7069 279° West 412 474 38,000  Level Salt Lake Center
09:54PM 40.7139 -110.8564 280° West 413 475 38,000  Level Salt Lake Center
09:55PM 40.7314 -111.0044 279° West 411 473 38,000  Level Salt Lake Center
09:56PM 40.7503 -111.1531 280° West 412 474 38,000  Level Salt Lake Center
09:57PM 40.7692 -111.3019 280° West 411 473 38,000  Level Salt Lake Center
09:58PM 40.7872 -111.4492 279° West 408 470 38,000  Level Salt Lake Center
09:59PM 40.8053 -111.5969 279° West 408 470 38,000  Level Salt Lake Center
10:00PM 40.8233 -111.7453 279° West 405 466 38,000  Level Salt Lake Center
10:01PM 40.8417 -111.8939 279° West 397 457 38,000  Level Salt Lake Center
10:02PM 40.8458 -112.0428 272° West 405 466 38,000  Level Salt Lake Center
10:03PM 40.8325 -112.1917 263° West 407 468 38,000  Level Salt Lake Center
10:04PM 40.8208 -112.3375 264° West 396 456 38,000  Level Salt Lake Center
10:05PM 40.8092 -112.4828 264° West 399 459 38,000  Level Salt Lake Center
10:06PM 40.7972 -112.6264 264° West 394 453 38,000  Level Salt Lake Center
10:07PM 40.7856 -112.7708 264° West 395 455 38,000  Level Salt Lake Center
10:08PM 40.7686 -112.9458 263° West 399 459 38,000  Level Salt Lake Center
10:09PM 40.7558 -113.0911 263° West 401 461 38,000  Level Salt Lake Center
10:10PM 40.7428 -113.2369 263° West 401 461 38,000  Level Salt Lake Center
10:11PM 40.7308 -113.3814 264° West 398 458 38,000  Level Salt Lake Center
10:12PM 40.7147 -113.5261 262° West 400 460 38,000  Level Salt Lake Center
10:13PM 40.7019 -113.6722 263° West 402 463 38,000  Level Salt Lake Center
10:14PM 40.6878 -113.8175 263° West 401 461 38,000  Level Salt Lake Center
10:15PM 40.6728 -113.9619 262° West 399 459 38,000  Level Salt Lake Center
10:16PM 40.6592 -114.1044 263° West 395 455 38,000  Level Salt Lake Center
10:17PM 40.6447 -114.2469 262° West 394 453 38,000  Level Salt Lake Center
10:18PM 40.6306 -114.3892 263° West 393 452 38,000  Level Salt Lake Center
10:19PM 40.6164 -114.5311 263° West 392 451 38,000  Level Salt Lake Center
10:20PM 40.6025 -114.6714 263° West 389 448 38,000  Level Salt Lake Center
10:21PM 40.5867 -114.8333 263° West 393 452 38,000  Level Salt Lake Center
10:22PM 40.5722 -114.9689 262° West 392 451 38,000  Level Salt Lake Center
10:23PM 40.5553 -115.1281 262° West 394 453 38,000  Level Salt Lake Center
10:24PM 40.5367 -115.2658 260° West 398 458 38,000  Level Salt Lake Center
10:25PM 40.5219 -115.4044 262° West 399 459 38,000  Level Salt Lake Center
10:26PM 40.5033 -115.5647 261° West 398 458 38,000  Level Salt Lake Center
10:27PM 40.4881 -115.6994 262° West 390 449 38,000  Level Salt Lake Center
10:28PM 40.4733 -115.8350 262° West 390 449 38,000  Level Salt Lake Center
10:29PM 40.4544 -115.9917 261° West 390 449 38,000  Level Salt Lake Center
10:30PM 40.4394 -116.1278 262° West 392 451 38,000  Level Salt Lake Center
10:31PM 40.4239 -116.2633 261° West 393 452 38,000  Level Salt Lake Center
10:32PM 40.4044 -116.4250 261° West 399 459 38,000  Level Salt Lake Center
10:33PM 40.3875 -116.5619 261° West 398 458 38,000  Level Salt Lake Center
10:34PM 40.3700 -116.6983 260° West 395 455 38,000  Level Salt Lake Center
10:35PM 40.3503 -116.8525 261° West 400 460 38,000 -300 Level Salt Lake Center
10:36PM 40.3314 -117.0167 261° West 417 480 37,400 -840 Descending Salt Lake Center
10:37PM 40.3136 -117.1614 261° West 419 482 36,400 -720 Descending Salt Lake Center
10:38PM 40.2953 -117.3050 261° West 418 481 36,000 -240 Descending Salt Lake Center
10:39PM 40.2733 -117.4703 260° West 413 475 36,000  Level Salt Lake Center
10:40PM 40.2556 -117.6142 261° West 417 480 36,000  Level Salt Lake Center
10:41PM 40.2411 -117.7211 260° West 417 480 36,000  Level Oakland Center
10:42PM 40.2181 -117.8969 260° West 410 472 36,000 -60 Level Oakland Center
10:43PM 40.1992 -118.0433 260° West 410 472 35,900 -660 Descending Oakland Center
10:44PM 40.1794 -118.1897 260° West 412 474 34,700 -1,560 Descending Oakland Center
10:45PM 40.1578 -118.3397 259° West 420 483 32,800 -2,640 Descending Oakland Center
10:46PM 40.1183 -118.4844 250° West 438 504 29,400 -3,000 Descending Oakland Center
10:47PM 40.0189 -118.5636 211° Southwest 424 488 26,800 -2,580 Descending Oakland Center
10:48PM 39.9181 -118.6197 203° Southwest 400 460 24,200 -2,640 Descending Oakland Center
10:49PM 39.8156 -118.6597 197° South 387 445 21,500 -2,700 Descending Oakland Center
10:50PM 39.7147 -118.6972 196° South 378 435 18,800 -2,520 Descending Oakland Center
10:51PM 39.6178 -118.7283 194° South 364 419 16,500 -1,440 Descending Oakland Center
10:52PM 39.5292 -118.7753 202° Southwest 351 404 16,000 -600 Descending Oakland Center
10:53PM 39.4353 -118.8486 211° Southwest 349 402 15,300 -1,020 Descending Oakland Center
10:54PM 39.4022 -118.9619 249° West 343 395 14,000 -660 Descending Oakland Center
10:55PM 39.3814 -119.0803 257° West 338 389 14,000 -360 Level Oakland Center
10:56PM 39.3608 -119.1983 257° West 330 380 13,300 -540 Descending Oakland Center
10:57PM 39.3417 -119.3067 257° West 314 361 13,000 -180 Descending Oakland Center
10:58PM 39.3214 -119.4175 257° West 316 364 13,000 -1,020 Level Oakland Center
10:59PM 39.2981 -119.5314 255° West 324 373 11,000 -1,140 Descending Oakland Center
11:00PM 39.2742 -119.6381 254° West 318 366 10,700 -960 Descending Oakland Center
11:02PM 39.3167 -119.7667 293° West 251 289 8,200 -1,320 Descending Northern Cal TRACON